Time;durP1;ratioP1;P1;durP2;ratioP2;P2;SDS_P1;SDS_P2;PMS_P1;PMS_P2;Temp;Humidity;BMP_temperature;BMP_pressure;BME280_temperature;BME280_humidity;BME280_pressure;Samples;Min_cycle;Max_cycle;Signal;HPM_P1;HPM_P2
2023/02/17 00:01:57;;;;;;;;;106.00;86.67;;;;;2.78;100.00;100427.50;6284838;20;3672095;-59
2023/02/17 00:04:31;;;;;;;;;95.33;76.67;;;;;2.78;100.00;100427.50;6283338;20;3651260;-59
2023/02/17 00:07:01;;;;;;;;;97.33;74.00;;;;;2.85;99.90;100423.00;6280307;20;3686837;-59
2023/02/17 00:09:31;;;;;;;;;95.67;73.67;;;;;2.78;99.93;100434.59;6283367;20;3674358;-59
2023/02/17 00:12:00;;;;;;;;;98.67;79.67;;;;;2.68;100.00;100431.22;6284740;20;3690902;-59
2023/02/17 00:14:30;;;;;;;;;96.67;77.67;;;;;2.74;100.00;100440.84;6282949;20;3676333;-59
2023/02/17 00:17:00;;;;;;;;;97.00;79.33;;;;;2.66;100.00;100432.16;6281351;20;3671239;-59
2023/02/17 00:19:29;;;;;;;;;98.00;82.67;;;;;2.53;100.00;100426.22;6282825;20;3675241;-60
2023/02/17 00:22:01;;;;;;;;;101.67;80.33;;;;;2.60;100.00;100422.53;6283716;20;3691018;-59
2023/02/17 00:24:36;;;;;;;;;98.67;81.67;;;;;2.62;100.00;100426.03;6278590;20;3678394;-58
2023/02/17 00:27:06;;;;;;;;;98.33;85.00;;;;;2.66;100.00;100434.81;6281805;20;3646078;-59
2023/02/17 00:29:36;;;;;;;;;105.33;83.33;;;;;2.74;100.00;100425.84;6313011;20;3684716;-60
2023/02/17 00:32:05;;;;;;;;;99.33;78.67;;;;;2.80;99.78;100431.03;6279339;20;3682577;-59
2023/02/17 00:34:36;;;;;;;;;98.00;80.67;;;;;2.74;99.71;100424.94;6279598;20;3676296;-59
2023/02/17 00:37:06;;;;;;;;;95.00;77.00;;;;;2.75;100.00;100426.72;6279326;20;3661768;-60
2023/02/17 00:39:36;;;;;;;;;100.33;82.00;;;;;2.81;99.82;100426.59;6276486;20;3686695;-59
2023/02/17 00:42:06;;;;;;;;;106.50;86.50;;;;;2.68;100.00;100419.75;6281465;20;3701391;-59
2023/02/17 00:44:36;;;;;;;;;97.00;80.33;;;;;2.61;99.93;100419.88;6312419;20;3686688;-59
2023/02/17 00:47:05;;;;;;;;;91.33;70.67;;;;;2.61;100.00;100413.69;6279577;20;3663844;-59
2023/02/17 00:49:35;;;;;;;;;89.67;60.67;;;;;2.63;100.00;100411.88;6311169;20;3651393;-59
2023/02/17 00:52:05;;;;;;;;;94.00;72.33;;;;;2.67;100.00;100410.94;6312007;20;3667987;-59
2023/02/17 00:54:35;;;;;;;;;94.67;71.33;;;;;2.62;100.00;100415.44;6282025;20;3653394;-59
2023/02/17 00:57:04;;;;;;;;;101.00;81.33;;;;;2.73;100.00;100418.75;6311693;20;3696142;-59
2023/02/17 00:59:34;;;;;;;;;98.00;78.00;;;;;2.74;100.00;100415.22;6277577;20;3677424;-59
2023/02/17 01:02:04;;;;;;;;;96.00;73.67;;;;;2.83;100.00;100412.41;6280681;20;3674297;-59
2023/02/17 01:04:34;;;;;;;;;94.33;73.67;;;;;2.92;99.88;100411.34;6278902;20;3665913;-59
2023/02/17 01:07:03;;;;;;;;;96.33;78.00;;;;;2.94;99.75;100411.31;6276612;20;3681522;-59
2023/02/17 01:09:33;;;;;;;;;94.67;75.33;;;;;2.98;99.32;100418.34;6280059;20;3660725;-59
2023/02/17 01:12:03;;;;;;;;;95.00;79.00;;;;;2.87;99.44;100418.53;6279149;20;3680499;-59
2023/02/17 01:14:32;;;;;;;;;92.33;70.67;;;;;2.85;99.64;100407.94;6279980;20;3679515;-59
2023/02/17 01:17:02;;;;;;;;;91.00;68.00;;;;;2.94;99.75;100408.69;6279785;20;3661957;-58
2023/02/17 01:19:32;;;;;;;;;96.33;76.33;;;;;2.92;99.39;100403.38;6275160;20;3657615;-59
2023/02/17 01:22:02;;;;;;;;;95.67;74.67;;;;;2.93;99.33;100407.81;6279053;20;3671140;-59
2023/02/17 01:24:30;;;;;;;;;98.60;75.20;;;;;2.76;99.62;100401.94;6133254;20;3673227;-59
2023/02/17 01:27:00;;;;;;;;;95.33;68.67;;;;;2.79;100.00;100402.75;6314767;20;3675291;-59
2023/02/17 01:29:29;;;;;;;;;95.33;75.33;;;;;2.79;99.97;100402.75;6279004;20;3670098;-59
2023/02/17 01:31:59;;;;;;;;;97.33;73.33;;;;;2.83;100.00;100401.78;6316293;20;3678387;-59
2023/02/17 01:34:28;;;;;;;;;96.00;76.00;;;;;2.81;99.79;100397.41;6281718;20;3677417;-59
2023/02/17 01:36:58;;;;;;;;;92.33;75.00;;;;;2.78;99.68;100401.00;6277476;20;3668038;-59
2023/02/17 01:39:28;;;;;;;;;100.00;80.33;;;;;2.88;99.73;100395.53;6280322;20;3684636;-59
2023/02/17 01:41:57;;;;;;;;;95.33;76.00;;;;;2.81;100.00;100402.72;6280461;20;3666934;-59
2023/02/17 01:44:31;;;;;;;;;92.00;79.67;;;;;2.89;100.00;100391.97;6280830;20;3657678;-59
2023/02/17 01:47:01;;;;;;;;;95.67;76.00;;;;;2.90;100.00;100401.66;6278836;20;3675344;-58
2023/02/17 01:49:37;;;;;;;;;93.00;73.00;;;;;2.80;100.00;100395.69;6278096;20;3673187;-59
2023/02/17 01:52:16;;;;;;;;;106.33;82.67;;;;;2.82;100.00;100392.09;6277557;20;3713755;-60
2023/02/17 01:54:56;;;;;;;;;95.33;75.67;;;;;2.79;100.00;100391.25;6277420;20;3674204;-59
2023/02/17 01:57:31;;;;;;;;;98.67;80.67;;;;;2.81;100.00;100394.75;6279107;20;3682536;-59
2023/02/17 02:00:03;;;;;;;;;93.00;75.33;;;;;2.75;100.00;100387.81;6277955;20;3666974;-59
2023/02/17 02:02:33;;;;;;;;;91.33;72.00;;;;;2.78;100.00;100387.75;6277242;20;3677465;-59
2023/02/17 02:05:04;;;;;;;;;94.67;79.00;;;;;2.69;100.00;100392.34;6277925;20;3664876;-59
2023/02/17 02:07:40;;;;;;;;;105.33;82.33;;;;;2.68;100.00;100387.94;6280597;20;3699258;-59
2023/02/17 02:10:13;;;;;;;;;99.67;78.67;;;;;2.70;100.00;100387.00;6277262;20;3690859;-59
2023/02/17 02:12:43;;;;;;;;;98.33;72.00;;;;;2.59;100.00;100379.25;6281290;20;3682573;-59
2023/02/17 02:15:23;;;;;;;;;93.67;71.67;;;;;2.54;100.00;100385.53;6280847;20;3673210;-59
2023/02/17 02:18:49;;;;;;;;;97.00;78.33;;;;;2.38;100.00;100380.50;6281026;20;3661801;-59
2023/02/17 02:22:25;;;;;;;;;95.67;75.67;;;;;2.22;100.00;100384.31;6281057;20;3668995;-59
2023/02/17 02:25:09;;;;;;;;;103.00;82.33;;;;;2.46;100.00;100376.84;6281732;20;3704455;-59
2023/02/17 02:28:50;;;;;;;;;129.75;103.50;;;;;2.54;100.00;100380.25;6284887;20;3718999;-59
2023/02/17 02:32:19;;;;;;;;;118.25;102.00;;;;;2.25;100.00;100371.00;6281709;20;4474266;-59
2023/02/17 02:35:33;;;;;;;;;100.50;83.00;;;;;2.29;100.00;100370.06;6280558;20;1948435;-59
2023/02/17 02:38:40;;;;;;;;;101.00;86.00;;;;;2.26;100.00;100370.09;6279234;20;3685789;-60
2023/02/17 02:41:20;;;;;;;;;104.67;83.00;;;;;2.28;100.00;100363.00;6281447;20;3687777;-59
2023/02/17 02:43:51;;;;;;;;;96.00;76.67;;;;;2.35;100.00;100369.94;6281523;20;3667943;-59
2023/02/17 02:46:21;;;;;;;;;95.33;75.33;;;;;2.44;100.00;100357.44;6277490;20;3672155;-59
2023/02/17 02:48:51;;;;;;;;;93.67;74.00;;;;;2.33;100.00;100363.78;6298461;20;3656964;-59
2023/02/17 02:51:52;;;;;;;;;95.33;70.00;;;;;2.54;100.00;100359.03;6279881;20;3666900;-59
2023/02/17 02:54:41;;;;;;;;;98.33;72.67;;;;;2.53;100.00;100359.94;6282327;20;3676404;-59
2023/02/17 02:57:47;;;;;;;;;94.33;71.33;;;;;2.57;100.00;100357.19;6281812;20;3674211;-59
2023/02/17 03:00:52;;;;;;;;;75.00;56.00;;;;;2.59;100.00;100365.13;6282310;20;2876398;-59
2023/02/17 03:03:50;;;;;;;;;95.00;67.00;;;;;2.65;100.00;100367.66;6313743;20;3679508;-59
2023/02/17 03:06:36;;;;;;;;;96.00;70.67;;;;;2.78;100.00;100363.00;6277514;20;3654445;-59
2023/02/17 03:09:20;;;;;;;;;85.33;64.67;;;;;2.81;100.00;100363.81;6313973;20;3644041;-57
2023/02/17 03:11:50;;;;;;;;;91.67;67.00;;;;;2.76;99.53;100360.38;6309706;20;3660661;-59
2023/02/17 03:14:22;;;;;;;;;93.00;70.33;;;;;2.87;99.52;100365.50;6276127;20;3661652;-59
2023/02/17 03:16:52;;;;;;;;;84.00;64.67;;;;;2.83;99.33;100356.72;6279410;20;3615954;-59
2023/02/17 03:19:24;;;;;;;;;91.33;71.33;;;;;2.79;99.47;100355.03;6310396;20;3651826;-59
2023/02/17 03:22:23;;;;;;;;;94.00;67.33;;;;;2.85;99.28;100360.22;6313324;20;3675306;-60
2023/02/17 03:24:52;;;;;;;;;98.00;78.67;;;;;2.78;99.30;100355.06;6277267;20;3671097;-59
2023/02/17 03:27:22;;;;;;;;;91.00;68.67;;;;;2.83;99.80;100356.72;6281859;20;3662810;-59
2023/02/17 03:29:52;;;;;;;;;89.67;67.33;;;;;2.89;99.48;100354.84;6281846;20;3662707;-59
2023/02/17 03:32:22;;;;;;;;;77.67;62.33;;;;;2.96;99.04;100356.47;6282440;20;2869241;-59
2023/02/17 03:34:51;;;;;;;;;91.67;70.00;;;;;3.20;98.30;100355.97;6317044;20;3671054;-59
2023/02/17 03:37:21;;;;;;;;;91.67;68.67;;;;;3.14;98.30;100350.81;6282246;20;3661813;-60
2023/02/17 03:39:51;;;;;;;;;89.00;66.67;;;;;3.20;97.51;100361.28;6281162;20;3669135;-60
2023/02/17 03:42:21;;;;;;;;;85.33;65.00;;;;;3.21;97.50;100364.81;6283017;20;2898307;-59
2023/02/17 03:44:50;;;;;;;;;80.33;61.67;;;;;3.20;97.31;100361.28;6316839;20;3638148;-59
2023/02/17 03:47:20;;;;;;;;;85.67;68.67;;;;;3.25;97.19;100354.09;6313271;20;3652346;-59
2023/02/17 03:49:51;;;;;;;;;88.67;71.33;;;;;3.22;97.15;100359.47;6316773;20;3657642;-59
2023/02/17 03:52:21;;;;;;;;;91.33;72.00;;;;;3.16;97.53;100354.31;6281980;20;3670118;-59
2023/02/17 03:54:52;;;;;;;;;99.00;77.67;;;;;3.01;98.97;100354.63;6282232;20;3681493;-59
2023/02/17 03:57:21;;;;;;;;;90.67;70.67;;;;;2.94;99.68;100352.97;6283461;20;3649177;-59
2023/02/17 03:59:51;;;;;;;;;110.33;85.00;;;;;2.86;100.00;100356.63;6313934;20;3700255;-59
2023/02/17 04:02:21;;;;;;;;;100.00;80.33;;;;;2.88;100.00;100359.28;6284468;20;3673235;-58
2023/02/17 04:04:51;;;;;;;;;97.33;82.33;;;;;2.74;100.00;100362.19;6282866;20;3677391;-58
2023/02/17 04:07:21;;;;;;;;;98.67;81.33;;;;;2.78;100.00;100361.22;6278798;20;3677338;-59
2023/02/17 04:09:50;;;;;;;;;101.33;80.33;;;;;2.75;100.00;100358.63;6283864;20;3706498;-58
2023/02/17 04:12:20;;;;;;;;;93.67;78.33;;;;;2.79;100.00;100376.25;6284804;20;3651339;-59
2023/02/17 04:14:49;;;;;;;;;97.00;74.67;;;;;2.63;100.00;100374.75;6281929;20;3679401;-57
2023/02/17 04:17:19;;;;;;;;;96.67;75.00;;;;;2.63;100.00;100369.44;6282772;20;3679505;-60
2023/02/17 04:19:49;;;;;;;;;96.67;70.67;;;;;2.68;100.00;100370.25;6281302;20;3678353;-59
2023/02/17 04:22:18;;;;;;;;;95.67;74.33;;;;;2.58;100.00;100371.31;6280681;20;3670026;-59
2023/02/17 04:24:48;;;;;;;;;93.33;76.00;;;;;2.51;100.00;100367.91;6313833;20;3658586;-59
2023/02/17 04:27:17;;;;;;;;;97.67;75.33;;;;;2.54;100.00;100365.19;6293610;20;3673204;-59
2023/02/17 04:29:47;;;;;;;;;95.33;74.33;;;;;2.42;100.00;100366.31;6282913;20;3670185;-59
2023/02/17 04:32:17;;;;;;;;;91.67;69.33;;;;;2.39;100.00;100371.63;6284896;20;3670034;-60
2023/02/17 04:34:46;;;;;;;;;102.33;79.67;;;;;2.45;100.00;100369.78;6283015;20;3705490;-59
2023/02/17 04:37:16;;;;;;;;;103.00;84.00;;;;;2.33;100.00;100361.16;6282206;20;3692003;-59
2023/02/17 04:39:46;;;;;;;;;102.33;81.33;;;;;2.36;100.00;100366.38;6282717;20;3683642;-59
2023/02/17 04:42:15;;;;;;;;;98.33;81.67;;;;;2.35;100.00;100369.94;6280948;20;3661753;-59
2023/02/17 04:44:45;;;;;;;;;95.00;74.33;;;;;2.36;100.00;100373.47;6311764;20;3680598;-60
2023/02/17 04:47:15;;;;;;;;;95.33;75.33;;;;;2.31;100.00;100372.69;6281702;20;3668031;-59
2023/02/17 04:49:44;;;;;;;;;97.67;79.67;;;;;2.33;100.00;100362.94;6279610;20;3664884;-58
2023/02/17 04:52:14;;;;;;;;;85.00;68.33;;;;;2.39;100.00;100361.03;6283588;20;3647126;-59
2023/02/17 04:54:44;;;;;;;;;98.33;76.00;;;;;2.41;100.00;100348.63;6313906;20;3686739;-59
2023/02/17 04:57:13;;;;;;;;;94.67;70.00;;;;;2.35;100.00;100347.88;6282836;20;3669005;-59
2023/02/17 04:59:44;;;;;;;;;91.67;72.00;;;;;2.33;100.00;100350.56;6313035;20;3667969;-60
2023/02/17 05:02:14;;;;;;;;;96.67;75.33;;;;;2.33;100.00;100344.38;6281603;20;3676312;-59
2023/02/17 05:04:43;;;;;;;;;91.67;67.00;;;;;2.42;99.92;100344.19;6281374;20;3661721;-59
2023/02/17 05:07:14;;;;;;;;;89.67;65.67;;;;;2.64;98.91;100334.09;6311450;20;3645073;-60
2023/02/17 05:09:44;;;;;;;;;90.33;66.00;;;;;2.71;98.17;100333.06;6314707;20;3637806;-59
2023/02/17 05:12:14;;;;;;;;;90.00;69.33;;;;;2.71;97.54;100318.94;6315066;20;3653365;-60
2023/02/17 05:14:43;;;;;;;;;85.33;64.33;;;;;2.76;97.66;100317.94;6312009;20;3641910;-59
2023/02/17 05:17:13;;;;;;;;;88.33;65.00;;;;;2.75;97.38;100326.81;6305902;20;3652390;-60
2023/02/17 05:19:42;;;;;;;;;89.00;65.33;;;;;2.90;96.38;100330.97;6313078;20;3642960;-59
2023/02/17 05:22:12;;;;;;;;;87.67;66.67;;;;;3.02;95.60;100346.59;6312544;20;3642957;-59
2023/02/17 05:24:42;;;;;;;;;84.67;65.33;;;;;2.89;96.17;100337.16;6310759;20;3630563;-60
2023/02/17 05:27:12;;;;;;;;;88.33;67.00;;;;;2.95;96.17;100344.09;6307637;20;3666922;-60
2023/02/17 05:29:42;;;;;;;;;87.00;64.67;;;;;3.05;95.93;100340.38;6307357;20;3629389;-60
2023/02/17 05:32:11;;;;;;;;;97.00;75.33;;;;;2.99;96.82;100356.41;6313217;20;3682940;-60
2023/02/17 05:34:41;;;;;;;;;89.67;71.33;;;;;2.91;97.14;100348.59;6276875;20;3656474;-59
2023/02/17 05:37:11;;;;;;;;;99.33;75.67;;;;;2.93;97.93;100354.75;6281220;20;3684647;-59
2023/02/17 05:39:41;;;;;;;;;98.33;78.67;;;;;2.82;98.22;100344.38;6281097;20;3680494;-59
2023/02/17 05:42:11;;;;;;;;;83.67;61.33;;;;;2.75;98.82;100355.13;6280102;20;3637810;-59
2023/02/17 05:44:40;;;;;;;;;92.00;73.67;;;;;2.90;99.41;100360.13;6313520;20;3666915;-58
2023/02/17 05:47:10;;;;;;;;;97.67;75.67;;;;;2.91;98.71;100363.66;6278479;20;3671243;-59
2023/02/17 05:49:40;;;;;;;;;97.33;75.00;;;;;2.91;98.90;100359.22;6276196;20;3665873;-59
2023/02/17 05:52:09;;;;;;;;;97.33;83.67;;;;;2.86;99.09;100361.94;6279654;20;3646093;-60
2023/02/17 05:54:39;;;;;;;;;95.00;76.00;;;;;2.82;98.80;100364.72;6286101;20;3678379;-60
2023/02/17 05:57:09;;;;;;;;;111.67;86.33;;;;;2.93;98.94;100362.72;6285532;20;3696117;-60
2023/02/17 05:59:38;;;;;;;;;114.00;85.00;;;;;2.80;98.43;100366.50;6287952;20;3702350;-59
2023/02/17 06:02:08;;;;;;;;;98.33;79.33;;;;;2.76;98.55;100363.03;6284529;20;3683128;-60
2023/02/17 06:04:38;;;;;;;;;95.33;79.00;;;;;2.90;98.24;100367.19;6286260;20;3666961;-59
2023/02/17 06:07:07;;;;;;;;;100.67;80.67;;;;;2.91;98.29;100363.66;6284807;20;3670074;-60
2023/02/17 06:09:37;;;;;;;;;93.00;75.00;;;;;2.96;98.36;100375.91;6284736;20;3665995;-60
2023/02/17 06:12:07;;;;;;;;;98.67;80.67;;;;;2.85;98.30;100380.56;6285815;20;3691944;-59
2023/02/17 06:14:36;;;;;;;;;97.67;77.67;;;;;2.88;98.45;100385.81;6286626;20;3681501;-60
2023/02/17 06:17:06;;;;;;;;;91.33;69.33;;;;;2.75;98.39;100385.16;6286410;20;3663846;-59
2023/02/17 06:19:35;;;;;;;;;113.00;86.00;;;;;2.81;98.63;100395.63;6284551;20;3687830;-59
2023/02/17 06:22:05;;;;;;;;;85.00;65.67;;;;;2.99;98.47;100390.91;6286438;20;3645195;-59
2023/02/17 06:24:35;;;;;;;;;99.67;80.33;;;;;3.08;97.98;100394.25;6316440;20;3686720;-59
2023/02/17 06:27:04;;;;;;;;;103.00;78.00;;;;;3.04;98.10;100395.22;6286128;20;3682584;-59
2023/02/17 06:29:34;;;;;;;;;103.67;87.33;;;;;3.04;97.58;100407.59;6285475;20;3674349;-60
2023/02/17 06:32:04;;;;;;;;;98.00;77.33;;;;;3.21;97.32;100402.84;6285286;20;3686735;-59
2023/02/17 06:34:33;;;;;;;;;99.00;83.75;;;;;3.11;97.13;100403.03;6287520;20;4434630;-60
2023/02/17 06:37:03;;;;;;;;;99.67;76.67;;;;;3.10;97.96;100391.56;6316243;20;3688926;-59
2023/02/17 06:39:33;;;;;;;;;101.50;80.25;;;;;3.21;97.68;100402.84;6286993;20;4439801;-59
2023/02/17 06:42:03;;;;;;;;;113.67;91.00;;;;;3.49;96.51;100399.63;6316045;20;3692973;-59
2023/02/17 06:44:32;;;;;;;;;108.67;88.33;;;;;3.57;96.04;100394.16;6284988;20;3695071;-59
2023/02/17 06:47:03;;;;;;;;;99.00;80.00;;;;;3.72;95.43;100394.69;6286494;20;3686713;-59
2023/02/17 06:49:32;;;;;;;;;106.00;83.00;;;;;3.69;94.75;100399.19;6283975;20;3681616;-59
2023/02/17 06:52:02;;;;;;;;;105.00;88.33;;;;;3.87;94.28;100379.28;6284190;20;3684703;-59
2023/02/17 06:54:32;;;;;;;;;96.67;82.33;;;;;4.10;93.80;100392.06;6284304;20;3674202;-59
2023/02/17 06:57:01;;;;;;;;;96.67;72.00;;;;;4.16;93.26;100384.81;6284116;20;3670014;-59
2023/02/17 06:59:32;;;;;;;;;95.00;81.33;;;;;3.90;93.58;100390.75;6283955;20;3652394;-59
2023/02/17 07:02:02;;;;;;;;;92.67;76.33;;;;;3.93;93.86;100390.66;6283380;20;3639799;-59
2023/02/17 07:04:32;;;;;;;;;93.00;75.67;;;;;4.07;93.50;100397.44;6316971;20;3686724;-59
2023/02/17 07:07:02;;;;;;;;;96.67;81.00;;;;;3.98;93.50;100395.88;6285514;20;3678347;-59
2023/02/17 07:09:31;;;;;;;;;93.67;73.33;;;;;4.05;93.53;100399.25;6283696;20;3680478;-59
2023/02/17 07:12:02;;;;;;;;;82.67;61.67;;;;;4.10;93.33;100379.63;6282696;20;3641910;-59
2023/02/17 07:14:34;;;;;;;;;95.00;76.67;;;;;4.13;93.27;100390.22;6317258;20;3668972;-59
2023/02/17 07:17:03;;;;;;;;;81.67;60.00;;;;;4.25;92.34;100398.78;6283348;20;3631515;-60
2023/02/17 07:19:34;;;;;;;;;100.25;78.00;;;;;4.32;92.38;100381.78;6316243;20;4469054;-59
2023/02/17 07:22:04;;;;;;;;;94.33;73.33;;;;;4.41;92.02;100386.88;6318751;20;3684673;-59
2023/02/17 07:24:33;;;;;;;;;94.00;71.33;;;;;4.54;91.21;100388.31;6284644;20;3681492;-59
2023/02/17 07:27:05;;;;;;;;;87.67;67.33;;;;;4.57;91.12;100393.53;6285658;20;3655475;-58
2023/02/17 07:29:38;;;;;;;;;92.67;72.00;;;;;4.41;91.86;100397.50;6316144;20;3675413;-58
2023/02/17 07:32:07;;;;;;;;;84.00;65.00;;;;;4.25;91.77;100388.16;6283625;20;3635701;-59
2023/02/17 07:34:37;;;;;;;;;86.33;62.67;;;;;4.15;92.67;100400.78;6314477;20;3645143;-59
2023/02/17 07:37:08;;;;;;;;;93.33;75.67;;;;;4.13;92.59;100390.22;6307565;20;3678949;-58
2023/02/17 07:39:37;;;;;;;;;95.33;80.00;;;;;4.18;92.35;100396.25;6283503;20;3674297;-59
2023/02/17 07:42:08;;;;;;;;;104.33;80.33;;;;;4.18;92.70;100406.03;6286389;20;3689960;-59
2023/02/17 07:44:38;;;;;;;;;96.00;79.67;;;;;4.36;92.86;100399.41;6284715;20;3677372;-58
2023/02/17 07:47:08;;;;;;;;;104.00;86.00;;;;;4.52;91.73;100405.22;6285328;20;3699303;-58
2023/02/17 07:49:37;;;;;;;;;97.67;82.67;;;;;4.67;91.41;100388.00;6284492;20;3665943;-59
2023/02/17 07:52:07;;;;;;;;;92.67;77.00;;;;;4.49;91.52;100400.84;6280722;20;3676487;-59
2023/02/17 07:54:37;;;;;;;;;95.00;78.00;;;;;4.62;91.37;100388.97;6284532;20;3677527;-58
2023/02/17 07:57:07;;;;;;;;;97.00;86.67;;;;;4.70;90.61;100395.91;6281542;20;3653384;-59
2023/02/17 07:59:36;;;;;;;;;95.33;78.33;;;;;4.77;90.48;100405.47;6281279;20;3672123;-59
2023/02/17 08:02:06;;;;;;;;;88.33;74.67;;;;;4.72;90.13;100394.94;6282952;20;3661736;-59
2023/02/17 08:04:36;;;;;;;;;93.33;74.00;;;;;4.79;90.10;100400.94;6314134;20;3689918;-59
2023/02/17 08:07:06;;;;;;;;;94.33;79.67;;;;;4.79;90.32;100398.28;6284711;20;3662768;-59
2023/02/17 08:15:13;;;;;;;;;80.67;60.67;;;;;5.12;88.59;100395.66;6284120;20;3643059;-59
2023/02/17 08:17:43;;;;;;;;;86.00;64.33;;;;;5.34;87.86;100390.59;6314814;20;3651303;-58
2023/02/17 08:20:14;;;;;;;;;88.33;68.00;;;;;5.40;86.88;100399.28;6312163;20;3646122;-59
2023/02/17 08:22:44;;;;;;;;;91.75;68.50;;;;;5.47;86.66;100403.50;6317518;20;3664956;-59
2023/02/17 08:25:13;;;;;;;;;82.67;62.67;;;;;5.48;86.48;100399.94;6313465;20;3642973;-59
2023/02/17 08:27:43;;;;;;;;;85.33;63.33;;;;;5.35;86.00;100387.88;6314685;20;3640938;-59
2023/02/17 08:30:13;;;;;;;;;83.33;64.00;;;;;5.48;86.20;100399.94;6314915;20;3628405;-58
2023/02/17 08:32:46;;;;;;;;;90.33;68.33;;;;;5.58;85.74;100391.66;6314697;20;3670039;-59
2023/02/17 08:35:18;;;;;;;;;81.00;63.67;;;;;5.72;84.85;100394.78;6314037;20;3626290;-58
2023/02/17 08:37:49;;;;;;;;;83.33;60.33;;;;;5.76;84.10;100404.41;6314169;20;3656547;-58
2023/02/17 08:40:19;;;;;;;;;82.33;61.00;;;;;5.83;84.05;100411.31;6278485;20;3631549;-58
2023/02/17 08:42:48;;;;;;;;;87.00;66.00;;;;;5.90;83.85;100407.56;6313468;20;3648199;-59
2023/02/17 08:45:18;;;;;;;;;88.67;70.00;;;;;6.10;82.98;100411.41;6314554;20;3674250;-58
2023/02/17 08:47:49;;;;;;;;;96.33;79.33;;;;;6.23;82.53;100419.91;6283979;20;3677464;-58
2023/02/17 08:50:19;;;;;;;;;91.67;73.00;;;;;6.40;81.93;100406.00;6281578;20;3666058;-58
2023/02/17 08:52:49;;;;;;;;;94.00;69.50;;;;;6.37;82.11;100412.31;6281174;20;2799289;-58
2023/02/17 08:55:19;;;;;;;;;89.67;70.33;;;;;6.65;81.94;100414.94;6314662;20;3678391;-59
2023/02/17 08:57:49;;;;;;;;;79.00;62.33;;;;;6.67;80.96;100415.78;6284848;20;2869129;-59
2023/02/17 09:00:19;;;;;;;;;91.00;74.67;;;;;6.96;80.38;100417.44;6314150;20;3683119;-59
2023/02/17 09:02:49;;;;;;;;;86.33;68.33;;;;;6.80;80.14;100410.91;6282407;20;3695161;-59
2023/02/17 09:05:19;;;;;;;;;93.33;78.00;;;;;7.04;79.92;100406.50;6281507;20;3683656;-59
2023/02/17 09:07:48;;;;;;;;;80.00;60.33;;;;;7.61;78.08;100410.63;6278423;20;3633730;-59
2023/02/17 09:10:18;;;;;;;;;76.00;61.00;;;;;7.90;77.09;100414.00;6312327;20;3608630;-59
2023/02/17 09:12:47;;;;;;;;;80.33;59.00;;;;;8.76;75.39;100418.56;6313550;20;3642982;-59
2023/02/17 09:15:17;;;;;;;;;72.00;56.00;;;;;8.95;72.79;100416.84;6314745;20;3618077;-59
2023/02/17 09:17:46;;;;;;;;;75.00;58.00;;;;;9.25;69.67;100416.44;6316783;20;3616890;-59
2023/02/17 09:20:18;;;;;;;;;68.67;52.33;;;;;9.07;70.45;100411.88;6283138;20;3635715;-59
2023/02/17 09:22:53;;;;;;;;;77.67;57.67;;;;;9.37;68.89;100423.03;6313804;20;3641914;-59
2023/02/17 09:25:23;;;;;;;;;68.33;51.33;;;;;9.48;67.59;100417.19;6278349;20;3624214;-60
2023/02/17 09:27:52;;;;;;;;;81.00;58.33;;;;;9.73;65.99;100414.28;6317538;20;3649204;-59
2023/02/17 09:30:22;;;;;;;;;76.00;57.33;;;;;9.91;65.54;100421.47;6284912;20;2884956;-59
2023/02/17 09:32:52;;;;;;;;;70.33;53.67;;;;;10.06;64.50;100419.88;6315540;20;3637720;-60
2023/02/17 09:35:21;;;;;;;;;73.00;55.00;;;;;9.84;64.63;100406.59;6319537;20;3636682;-60
2023/02/17 09:37:51;;;;;;;;;74.00;56.00;;;;;10.17;62.98;100397.91;6284784;20;3624200;-59
2023/02/17 09:40:47;;;;;;;;;63.33;50.67;;;;;10.21;62.53;100403.00;6320736;20;3623269;-60
2023/02/17 09:43:26;;;;;;;;;69.33;54.00;;;;;10.54;62.05;100402.34;6287494;20;3599364;-59
2023/02/17 09:46:09;;;;;;;;;66.33;50.33;;;;;10.43;62.35;100407.41;6315861;20;3638780;-59
2023/02/17 09:48:40;;;;;;;;;66.67;52.00;;;;;10.93;61.10;100401.28;6286940;20;3626343;-58
2023/02/17 09:51:41;;;;;;;;;60.67;48.00;;;;;10.40;59.93;100415.56;6318714;20;3631568;-60
2023/02/17 09:54:40;;;;;;;;;68.67;53.33;;;;;10.32;61.96;100414.16;6285215;20;3600408;-60
2023/02/17 09:57:19;;;;;;;;;72.33;53.67;;;;;10.22;62.06;100404.78;6316576;20;3624383;-61
2023/02/17 10:00:13;;;;;;;;;66.67;52.33;;;;;9.90;62.82;100414.38;6284598;20;2842055;-60
2023/02/17 10:03:17;;;;;;;;;73.33;55.67;;;;;10.72;61.60;100420.22;6320828;20;3621082;-59
2023/02/17 10:06:18;;;;;;;;;69.00;52.33;;;;;11.36;61.64;100417.84;6288508;20;3620054;-59
2023/02/17 10:09:18;;;;;;;;;67.67;54.00;;;;;10.75;61.89;100413.84;6316237;20;3610841;-59
2023/02/17 10:12:23;;;;;;;;;68.00;52.67;;;;;10.98;61.65;100410.84;6318355;20;3644135;-59
2023/02/17 10:15:10;;;;;;;;;74.33;60.00;;;;;10.63;64.04;100409.94;6319106;20;3610651;-59
2023/02/17 10:18:12;;;;;;;;;69.33;54.00;;;;;10.62;62.84;100404.66;6286175;20;3628366;-60
2023/02/17 10:20:58;;;;;;;;;74.33;55.67;;;;;11.19;62.26;100403.47;6321385;20;3624282;-60
2023/02/17 10:23:29;;;;;;;;;64.00;50.33;;;;;11.34;61.19;100401.78;6282834;20;3616971;-60
2023/02/17 10:26:13;;;;;;;;;65.75;51.75;;;;;11.57;60.19;100387.09;6323082;20;3634659;-59
2023/02/17 10:28:56;;;;;;;;;62.67;50.00;;;;;11.85;59.96;100385.59;6318349;20;3615883;-60
2023/02/17 10:32:21;;;;;;;;;63.00;49.67;;;;;11.54;59.22;100384.59;6317362;20;3625250;-59
2023/02/17 10:35:20;;;;;;;;;60.00;46.33;;;;;11.70;58.69;100371.16;6286088;20;3624249;-59
2023/02/17 10:38:11;;;;;;;;;61.00;47.00;;;;;11.74;59.80;100375.44;6314985;20;3631530;-56
2023/02/17 10:40:43;;;;;;;;;56.67;44.67;;;;;11.37;59.44;100373.84;6315050;20;3621212;-59
2023/02/17 10:43:24;;;;;;;;;55.33;45.00;;;;;11.61;59.10;100360.91;6313741;20;3621100;-59
2023/02/17 10:45:54;;;;;;;;;47.67;38.33;;;;;11.46;58.98;100362.63;6315137;20;2855586;-59
2023/02/17 10:48:49;;;;;;;;;55.00;45.00;;;;;11.55;59.15;100356.72;6319312;20;3619024;-59
2023/02/17 10:51:27;;;;;;;;;55.67;41.67;;;;;12.17;59.13;100353.34;6282933;20;3600315;-59
2023/02/17 10:54:06;;;;;;;;;63.00;47.33;;;;;11.96;61.50;100355.44;6313797;20;3653347;-59
2023/02/17 10:56:47;;;;;;;;;56.00;44.67;;;;;12.52;59.02;100349.44;6322251;20;3614898;-59
2023/02/17 10:59:30;;;;;;;;;62.00;47.33;;;;;12.18;60.13;100341.59;6283821;20;3647231;-59
2023/02/17 11:02:36;;;;;;;;;62.00;47.00;;;;;12.06;61.05;100337.81;6281392;20;3638834;-59
2023/02/17 11:05:07;;;;;;;;;52.00;38.75;;;;;12.06;59.45;100329.72;6317351;20;3629503;-59
2023/02/17 11:07:42;;;;;;;;;55.33;44.00;;;;;12.05;59.60;100327.97;6315446;20;3603444;-59
2023/02/17 11:10:35;;;;;;;;;59.00;46.00;;;;;11.71;61.21;100312.84;6312015;20;3625252;-59
2023/02/17 11:13:35;;;;;;;;;59.00;46.67;;;;;11.58;63.34;100321.59;6314088;20;3622125;-59
2023/02/17 11:16:05;;;;;;;;;60.00;47.25;;;;;11.42;63.16;100323.41;6321583;20;3631527;-59
2023/02/17 11:18:41;;;;;;;;;67.67;52.33;;;;;11.41;63.81;100321.66;6315423;20;3617960;-59
2023/02/17 11:21:11;;;;;;;;;70.00;53.67;;;;;11.37;64.39;100318.28;6279712;20;3618004;-59
2023/02/17 11:23:54;;;;;;;;;64.67;51.33;;;;;11.34;66.51;100315.75;6319844;20;3612812;-59
2023/02/17 11:26:33;;;;;;;;;65.33;50.00;;;;;11.26;64.66;100312.63;6281727;20;3628372;-59
2023/02/17 11:29:17;;;;;;;;;63.67;50.33;;;;;11.24;64.27;100305.59;6314842;20;3608688;-60
2023/02/17 11:32:05;;;;;;;;;59.33;44.67;;;;;11.19;64.07;100306.72;6313116;20;3637788;-60
2023/02/17 11:34:40;;;;;;;;;58.67;45.67;;;;;11.29;63.81;100308.88;6284046;20;3632695;-58
2023/02/17 11:37:13;;;;;;;;;58.00;44.67;;;;;11.43;62.23;100309.88;6314902;20;3628454;-59